Time;durP1;ratioP1;P1;durP2;ratioP2;P2;SDS_P1;SDS_P2;PMS_P1;PMS_P2;Temp;Humidity;BMP_temperature;BMP_pressure;BME280_temperature;BME280_humidity;BME280_pressure;Samples;Min_cycle;Max_cycle;Signal;HPM_P1;HPM_P2
2023/12/11 00:01:49;;;;;;;0.50;0.50;;;;;;;6.70;100.00;99301.19;5014842;28;20477;-78
2023/12/11 00:04:15;;;;;;;0.40;0.40;;;;;;;6.73;100.00;99310.66;5000263;28;20099;-76
2023/12/11 00:06:41;;;;;;;0.40;0.40;;;;;;;6.63;100.00;99307.44;5015734;28;20073;-78
2023/12/11 00:09:07;;;;;;;0.40;0.40;;;;;;;6.53;100.00;99311.22;5034378;28;20025;-78
2023/12/11 00:11:32;;;;;;;0.40;0.40;;;;;;;6.52;100.00;99306.91;5034964;28;20116;-78
2023/12/11 00:14:00;;;;;;;0.40;0.40;;;;;;;6.58;100.00;99321.34;5019351;28;20135;-77
2023/12/11 00:16:26;;;;;;;0.40;0.40;;;;;;;6.67;100.00;99308.72;5052126;28;20029;-78
2023/12/11 00:18:54;;;;;;;0.40;0.40;;;;;;;6.59;100.00;99312.34;5002450;28;20048;-78
2023/12/11 00:21:23;;;;;;;0.40;0.40;;;;;;;6.50;100.00;99316.94;5019172;28;20032;-77
2023/12/11 00:23:52;;;;;;;0.50;0.50;;;;;;;6.34;100.00;99309.09;5015936;28;20048;-77
2023/12/11 00:26:22;;;;;;;0.40;0.40;;;;;;;6.28;100.00;99320.53;5024292;28;20028;-78
2023/12/11 00:29:06;;;;;;;0.40;0.40;;;;;;;6.15;100.00;99324.66;5035911;28;20041;-78
2023/12/11 00:31:32;;;;;;;0.38;0.38;;;;;;;6.23;100.00;99322.91;5008219;28;20112;-79
2023/12/11 00:33:58;;;;;;;0.40;0.40;;;;;;;6.24;100.00;99335.25;5029822;28;20471;-78
2023/12/11 00:36:31;;;;;;;0.47;0.47;;;;;;;6.29;100.00;99339.00;5020226;28;20044;-78
2023/12/11 00:38:59;;;;;;;0.40;0.40;;;;;;;6.22;100.00;99334.59;5018045;28;20052;-77
2023/12/11 00:41:33;;;;;;;0.40;0.40;;;;;;;6.18;100.00;99335.97;5011888;28;20045;-78
2023/12/11 00:43:59;;;;;;;0.30;0.30;;;;;;;6.23;100.00;99346.94;5012156;28;20037;-77
2023/12/11 00:46:26;;;;;;;0.40;0.40;;;;;;;6.18;100.00;99346.66;5001998;28;20060;-78
2023/12/11 00:48:57;;;;;;;0.50;0.50;;;;;;;6.11;100.00;99352.72;5022134;28;20514;-78
2023/12/11 00:51:22;;;;;;;0.40;0.40;;;;;;;6.07;100.00;99354.09;5046056;28;20271;-79
2023/12/11 00:53:48;;;;;;;0.43;0.43;;;;;;;6.12;100.00;99354.38;5004368;28;20041;-78
2023/12/11 00:56:14;;;;;;;0.40;0.40;;;;;;;6.16;100.00;99355.66;5012959;28;20029;-78
2023/12/11 00:58:46;;;;;;;0.50;0.50;;;;;;;6.35;100.00;99367.66;5022920;28;20036;-78
2023/12/11 01:01:14;;;;;;;0.40;0.40;;;;;;;6.49;100.00;99376.69;5022763;28;20048;-78
2023/12/11 01:03:39;;;;;;;0.40;0.40;;;;;;;6.60;100.00;99376.22;5029653;28;20091;-78
2023/12/11 01:06:08;;;;;;;0.40;0.40;;;;;;;6.67;100.00;99378.16;5003380;28;20045;-78
2023/12/11 01:08:39;;;;;;;0.40;0.40;;;;;;;6.69;100.00;99393.00;5031464;28;20098;-78
2023/12/11 01:11:06;;;;;;;0.40;0.40;;;;;;;6.55;100.00;99401.84;5004666;28;20033;-78
2023/12/11 01:13:32;;;;;;;0.40;0.40;;;;;;;6.55;100.00;99405.34;5002957;28;20049;-78
2023/12/11 01:15:58;;;;;;;0.40;0.40;;;;;;;6.67;100.00;99410.22;5013576;28;20041;-77
2023/12/11 01:18:24;;;;;;;0.40;0.40;;;;;;;6.79;100.00;99417.59;5023394;28;20407;-78
2023/12/11 01:20:50;;;;;;;0.40;0.40;;;;;;;6.86;100.00;99412.34;5020846;28;20072;-78
2023/12/11 01:23:19;;;;;;;0.40;0.40;;;;;;;6.88;100.00;99423.69;5018874;28;20029;-78
2023/12/11 01:25:50;;;;;;;0.40;0.40;;;;;;;6.89;100.00;99425.34;5022657;28;20041;-78
2023/12/11 01:28:15;;;;;;;0.40;0.40;;;;;;;6.77;100.00;99421.47;5002802;28;20034;-78
2023/12/11 01:30:41;;;;;;;0.40;0.40;;;;;;;6.58;100.00;99434.34;5030117;28;20036;-78
2023/12/11 01:33:09;;;;;;;0.40;0.40;;;;;;;6.55;100.00;99436.56;5000470;28;20040;-78
2023/12/11 01:35:34;;;;;;;0.50;0.50;;;;;;;6.50;100.00;99434.41;5028339;28;20538;-78
2023/12/11 01:38:01;;;;;;;0.40;0.40;;;;;;;6.51;100.00;99444.13;5037451;28;20464;-78
2023/12/11 01:40:26;;;;;;;0.50;0.50;;;;;;;6.55;100.00;99445.41;5021675;28;20091;-78
2023/12/11 01:42:55;;;;;;;0.50;0.50;;;;;;;6.52;100.00;99447.59;5035101;28;20486;-79
2023/12/11 01:45:23;;;;;;;0.40;0.40;;;;;;;6.49;100.00;99454.13;5022490;28;20029;-78
2023/12/11 01:47:51;;;;;;;0.40;0.40;;;;;;;6.34;100.00;99450.59;5002286;28;20496;-78
2023/12/11 01:50:20;;;;;;;0.40;0.40;;;;;;;6.24;100.00;99460.69;5034681;28;20599;-79
2023/12/11 01:52:48;;;;;;;0.40;0.40;;;;;;;6.28;100.00;99473.50;5017642;28;20032;-78
2023/12/11 01:55:14;;;;;;;0.40;0.40;;;;;;;6.32;100.00;99471.31;5014652;28;20072;-78
2023/12/11 01:57:40;;;;;;;0.50;0.50;;;;;;;6.36;100.00;99483.28;5017815;28;20056;-78
2023/12/11 02:00:07;;;;;;;0.50;0.50;;;;;;;6.33;100.00;99489.00;5013491;28;20124;-78
2023/12/11 02:02:42;;;;;;;0.50;0.50;;;;;;;6.33;100.00;99486.34;5026679;28;20468;-78
2023/12/11 02:05:07;;;;;;;0.40;0.40;;;;;;;6.33;100.00;99494.34;5016770;28;20040;-79
2023/12/11 02:07:33;;;;;;;0.40;0.40;;;;;;;6.45;100.00;99492.88;5036761;28;20533;-78
2023/12/11 02:10:01;;;;;;;0.40;0.40;;;;;;;6.60;100.00;99484.91;5004938;28;20052;-78
2023/12/11 02:12:32;;;;;;;0.40;0.40;;;;;;;6.70;100.00;99485.50;5040108;28;20061;-78
2023/12/11 02:14:58;;;;;;;0.40;0.40;;;;;;;6.70;100.00;99487.34;5048256;28;20141;-78
2023/12/11 02:17:24;;;;;;;0.40;0.40;;;;;;;6.71;100.00;99489.00;5008303;28;20140;-78
2023/12/11 02:19:52;;;;;;;0.40;0.40;;;;;;;6.64;100.00;99485.38;5002223;28;20048;-78
2023/12/11 02:22:22;;;;;;;0.40;0.40;;;;;;;6.74;100.00;99492.13;5008777;28;20034;-78
2023/12/11 02:24:51;;;;;;;0.40;0.40;;;;;;;6.78;100.00;99493.41;5024950;28;20037;-78
2023/12/11 02:27:33;;;;;;;0.40;0.40;;;;;;;6.88;100.00;99498.50;4987677;28;20049;-79
2023/12/11 02:29:59;;;;;;;0.38;0.38;;;;;;;6.97;100.00;99508.09;5055704;28;20032;-78
2023/12/11 02:32:47;;;;;;;;;;;;;;;;;;;;;
2023/12/11 02:35:24;;;;;;;0.40;0.40;;;;;;;6.90;100.00;99507.16;5021607;28;20041;-79
2023/12/11 02:38:28;;;;;;;0.40;0.40;;;;;;;6.99;100.00;99502.56;5047262;28;20048;-78
2023/12/11 02:41:46;;;;;;;0.40;0.40;;;;;;;7.02;100.00;99510.22;5007672;28;20033;-78
2023/12/11 02:45:06;;;;;;;0.40;0.40;;;;;;;7.07;100.00;99531.88;5003206;28;20046;-78
2023/12/11 02:48:02;;;;;;;0.50;0.50;;;;;;;6.75;100.00;99525.84;5017171;28;20094;-79
2023/12/11 02:51:07;;;;;;;0.40;0.40;;;;;;;6.56;100.00;99537.00;4993052;28;20040;-79
2023/12/11 02:53:33;;;;;;;0.40;0.40;;;;;;;6.34;100.00;99530.69;4974346;28;20057;-81
2023/12/11 02:55:58;;;;;;;0.50;0.50;;;;;;;6.12;100.00;99530.50;4986387;28;20045;-78
2023/12/11 02:58:24;;;;;;;0.40;0.40;;;;;;;5.93;100.00;99530.94;5015962;28;20091;-79
2023/12/11 03:00:49;;;;;;;0.50;0.50;;;;;;;5.72;100.00;99527.06;5001713;28;20476;-78
2023/12/11 03:03:15;;;;;;;0.40;0.40;;;;;;;5.68;100.00;99536.41;5034039;28;20471;-78
2023/12/11 03:05:44;;;;;;;0.50;0.50;;;;;;;5.63;100.00;99537.91;5004393;28;20392;-80
2023/12/11 03:08:15;;;;;;;0.40;0.40;;;;;;;5.80;100.00;99536.03;5010533;28;20040;-78
2023/12/11 03:10:43;;;;;;;0.50;0.50;;;;;;;5.97;100.00;99539.44;5022902;28;20464;-78
2023/12/11 03:13:09;;;;;;;0.40;0.40;;;;;;;6.05;100.00;99544.75;5002334;28;20033;-78
2023/12/11 03:15:37;;;;;;;0.40;0.40;;;;;;;6.13;100.00;99545.50;5021577;28;20045;-79
2023/12/11 03:18:05;;;;;;;0.50;0.50;;;;;;;6.16;100.00;99549.66;5001664;28;20040;-78
2023/12/11 03:20:34;;;;;;;0.50;0.50;;;;;;;6.23;100.00;99541.78;5000577;28;20067;-79
2023/12/11 03:22:59;;;;;;;0.40;0.40;;;;;;;6.28;100.00;99552.78;5031556;28;20033;-78
2023/12/11 03:25:25;;;;;;;0.40;0.40;;;;;;;6.26;100.00;99552.09;5016549;28;20033;-79
2023/12/11 03:27:57;;;;;;;0.40;0.40;;;;;;;6.01;100.00;99543.44;5051752;28;20039;-78
2023/12/11 03:30:26;;;;;;;0.40;0.40;;;;;;;5.75;100.00;99555.22;5052733;28;20037;-78
2023/12/11 03:32:52;;;;;;;0.40;0.40;;;;;;;5.47;100.00;99552.16;5014660;28;20069;-78
2023/12/11 03:35:17;;;;;;;0.40;0.40;;;;;;;5.27;100.00;99557.06;5033947;28;20043;-78
2023/12/11 03:37:46;;;;;;;0.50;0.50;;;;;;;5.15;100.00;99558.41;5027104;28;20489;-78
2023/12/11 03:40:12;;;;;;;0.32;0.32;;;;;;;5.04;100.00;99563.09;5006009;28;20037;-78
2023/12/11 03:42:37;;;;;;;0.40;0.40;;;;;;;4.88;100.00;99567.63;5027918;28;20047;-79
2023/12/11 03:45:03;;;;;;;0.40;0.40;;;;;;;4.77;100.00;99558.97;5034835;28;20504;-79
2023/12/11 03:47:32;;;;;;;0.50;0.50;;;;;;;4.60;100.00;99559.97;5003117;28;20075;-79
2023/12/11 03:49:57;;;;;;;0.47;0.47;;;;;;;4.46;100.00;99563.31;5018423;28;20040;-78
2023/12/11 03:52:23;;;;;;;0.50;0.50;;;;;;;4.36;100.00;99558.13;5034327;28;20036;-78
2023/12/11 03:54:52;;;;;;;0.40;0.40;;;;;;;4.24;100.00;99548.84;5017527;28;20131;-78
2023/12/11 03:57:18;;;;;;;0.40;0.40;;;;;;;4.13;100.00;99552.66;5003314;28;20036;-78
2023/12/11 03:59:43;;;;;;;0.40;0.40;;;;;;;3.91;100.00;99562.88;5001690;28;20041;-78
2023/12/11 04:02:09;;;;;;;0.50;0.50;;;;;;;3.69;100.00;99561.66;5024790;28;20387;-79
2023/12/11 04:04:37;;;;;;;0.40;0.40;;;;;;;3.60;100.00;99570.59;5003288;28;20357;-78
2023/12/11 04:07:03;;;;;;;0.40;0.40;;;;;;;3.50;100.00;99578.69;5022651;28;20037;-78
2023/12/11 04:09:29;;;;;;;0.40;0.40;;;;;;;3.36;100.00;99570.47;5007014;28;20590;-78
2023/12/11 04:12:18;;;;;;;0.45;0.45;;;;;;;3.25;100.00;99568.94;5050580;28;20099;-78
2023/12/11 04:15:04;;;;;;;0.40;0.40;;;;;;;3.14;100.00;99574.50;5010423;28;20072;-78
2023/12/11 04:21:11;;;;;;;0.50;0.50;;;;;;;2.85;100.00;99580.97;5031708;28;20116;-78
2023/12/11 04:23:36;;;;;;;0.45;0.45;;;;;;;2.75;100.00;99585.53;5004740;28;20086;-78
2023/12/11 04:26:03;;;;;;;0.40;0.40;;;;;;;2.73;100.00;99582.22;5003615;28;20501;-79
2023/12/11 04:28:31;;;;;;;0.40;0.40;;;;;;;2.87;100.00;99586.97;5008705;28;20029;-79
2023/12/11 04:30:57;;;;;;;0.40;0.40;;;;;;;2.94;100.00;99584.50;5016774;28;20460;-78
2023/12/11 04:33:23;;;;;;;0.40;0.40;;;;;;;2.99;100.00;99588.38;5018239;28;20032;-78
2023/12/11 04:35:49;;;;;;;0.50;0.50;;;;;;;3.21;100.00;99583.53;5017174;28;20037;-78
2023/12/11 04:38:15;;;;;;;0.40;0.40;;;;;;;3.29;100.00;99595.03;5002197;28;20033;-78
2023/12/11 04:40:40;;;;;;;0.50;0.50;;;;;;;3.44;100.00;99595.28;5012020;28;20037;-78
2023/12/11 04:43:06;;;;;;;0.40;0.40;;;;;;;3.47;100.00;99594.13;5011679;28;20040;-79
2023/12/11 04:45:34;;;;;;;0.40;0.40;;;;;;;3.51;100.00;99593.63;5021299;28;20056;-78
2023/12/11 04:48:05;;;;;;;0.40;0.40;;;;;;;3.52;100.00;99600.63;5012720;28;20039;-79
2023/12/11 04:50:31;;;;;;;0.50;0.50;;;;;;;3.62;100.00;99597.00;5050158;28;20559;-78
2023/12/11 04:52:56;;;;;;;0.45;0.45;;;;;;;3.90;100.00;99603.78;5026261;28;20132;-79
2023/12/11 04:55:23;;;;;;;0.40;0.40;;;;;;;4.05;100.00;99606.66;5027088;28;20115;-78
2023/12/11 04:57:49;;;;;;;0.40;0.40;;;;;;;4.13;100.00;99603.19;5018919;28;20041;-78
2023/12/11 05:00:18;;;;;;;0.40;0.40;;;;;;;4.10;100.00;99604.34;5027222;28;20420;-78
2023/12/11 05:02:43;;;;;;;0.40;0.40;;;;;;;4.17;100.00;99604.50;5050197;28;20475;-78
2023/12/11 05:05:10;;;;;;;0.40;0.40;;;;;;;4.23;100.00;99621.66;5018917;28;20041;-78
2023/12/11 05:07:36;;;;;;;0.50;0.50;;;;;;;4.16;100.00;99617.00;5019050;28;20037;-78
2023/12/11 05:10:04;;;;;;;0.40;0.40;;;;;;;4.04;100.00;99625.44;5006296;28;20068;-78
2023/12/11 05:12:30;;;;;;;0.50;0.50;;;;;;;4.01;100.00;99629.25;5002183;28;20128;-78
2023/12/11 05:14:55;;;;;;;0.43;0.43;;;;;;;3.95;100.00;99628.06;5033028;28;20502;-79
2023/12/11 05:17:23;;;;;;;0.50;0.50;;;;;;;3.93;100.00;99626.56;5031363;28;20454;-78
2023/12/11 05:19:51;;;;;;;0.40;0.40;;;;;;;3.90;100.00;99621.56;5025850;28;20045;-78
2023/12/11 05:22:19;;;;;;;0.50;0.50;;;;;;;3.89;100.00;99620.75;5000740;28;20537;-78
2023/12/11 05:24:46;;;;;;;0.40;0.40;;;;;;;3.89;100.00;99628.72;5004550;28;20510;-78
2023/12/11 05:27:12;;;;;;;0.50;0.50;;;;;;;3.89;100.00;99619.88;5015241;28;20403;-78
2023/12/11 05:29:41;;;;;;;0.50;0.50;;;;;;;3.95;100.00;99612.09;5001301;28;20041;-78
2023/12/11 05:32:10;;;;;;;0.45;0.45;;;;;;;4.02;100.00;99614.09;5042119;28;20029;-79
2023/12/11 05:34:36;;;;;;;0.40;0.40;;;;;;;4.07;100.00;99619.78;5029280;28;20036;-78
2023/12/11 05:37:05;;;;;;;0.40;0.40;;;;;;;4.14;100.00;99624.28;5002503;28;20095;-78
2023/12/11 05:39:31;;;;;;;0.50;0.50;;;;;;;4.25;100.00;99625.00;5002609;28;20119;-79
2023/12/11 05:41:59;;;;;;;0.40;0.40;;;;;;;4.29;100.00;99621.84;5020461;28;20451;-78
2023/12/11 05:44:25;;;;;;;0.50;0.50;;;;;;;4.39;100.00;99627.00;5036329;28;20124;-79
2023/12/11 05:46:50;;;;;;;0.43;0.43;;;;;;;4.44;100.00;99624.69;5001158;28;20459;-79
2023/12/11 05:49:18;;;;;;;0.40;0.40;;;;;;;4.47;100.00;99626.19;5034769;28;20388;-78
2023/12/11 05:51:44;;;;;;;0.40;0.40;;;;;;;4.51;100.00;99630.19;5016810;28;20068;-79
2023/12/11 05:54:10;;;;;;;0.40;0.40;;;;;;;4.49;100.00;99624.19;5017118;28;20068;-78
2023/12/11 05:56:35;;;;;;;0.40;0.40;;;;;;;4.41;100.00;99620.53;5022728;28;20451;-78
2023/12/11 05:59:02;;;;;;;0.50;0.50;;;;;;;4.32;100.00;99626.84;5028840;28;20071;-78
2023/12/11 06:01:29;;;;;;;0.50;0.50;;;;;;;4.27;100.00;99625.66;5019854;28;20072;-78
2023/12/11 06:04:00;;;;;;;0.50;0.50;;;;;;;4.20;100.00;99630.78;5015464;28;20103;-77
2023/12/11 06:06:26;;;;;;;0.40;0.40;;;;;;;4.14;100.00;99634.94;5012886;28;20124;-80
2023/12/11 06:08:51;;;;;;;0.40;0.40;;;;;;;4.13;100.00;99629.78;5035609;28;20132;-78
2023/12/11 06:11:20;;;;;;;0.40;0.40;;;;;;;4.18;100.00;99632.78;5013205;28;20029;-80
2023/12/11 06:13:46;;;;;;;0.40;0.40;;;;;;;4.21;100.00;99640.47;5011610;28;20396;-78
2023/12/11 06:16:15;;;;;;;0.40;0.40;;;;;;;4.22;100.00;99643.94;5028083;28;20601;-78
2023/12/11 06:18:44;;;;;;;0.40;0.40;;;;;;;4.07;100.00;99646.38;5018453;28;20033;-78
2023/12/11 06:21:23;;;;;;;0.40;0.40;;;;;;;4.02;100.00;99648.69;5018018;28;20460;-78
2023/12/11 06:23:49;;;;;;;0.50;0.50;;;;;;;4.03;100.00;99647.72;5018957;28;20037;-78
2023/12/11 06:26:32;;;;;;;0.50;0.50;;;;;;;4.09;100.00;99639.91;5009244;28;20045;-78
2023/12/11 06:29:01;;;;;;;0.40;0.40;;;;;;;4.12;100.00;99641.41;4986653;28;20041;-78
2023/12/11 06:31:28;;;;;;;0.50;0.50;;;;;;;4.18;100.00;99648.72;5033735;28;20036;-79
2023/12/11 06:33:54;;;;;;;0.40;0.40;;;;;;;4.27;100.00;99650.44;5017012;28;20043;-78
2023/12/11 06:36:21;;;;;;;0.40;0.40;;;;;;;4.25;100.00;99641.78;5014152;28;20021;-78
2023/12/11 06:38:50;;;;;;;0.50;0.50;;;;;;;4.16;100.00;99653.41;5020836;28;20041;-78
2023/12/11 06:41:17;;;;;;;0.45;0.45;;;;;;;4.02;100.00;99656.66;5013496;28;20033;-78
2023/12/11 06:44:12;;;;;;;0.40;0.40;;;;;;;3.87;100.00;99649.31;5024764;28;20227;-78
2023/12/11 06:46:44;;;;;;;0.40;0.40;;;;;;;3.77;100.00;99645.94;5023225;28;20068;-78
2023/12/11 06:49:09;;;;;;;0.40;0.40;;;;;;;3.82;100.00;99650.78;5012634;28;20037;-78
2023/12/11 06:51:37;;;;;;;0.40;0.40;;;;;;;3.88;100.00;99652.78;5002984;28;20037;-78
2023/12/11 06:54:02;;;;;;;0.40;0.40;;;;;;;3.68;100.00;99655.72;5036063;28;20133;-79
2023/12/11 06:56:48;;;;;;;0.40;0.40;;;;;;;3.38;100.00;99659.66;5010089;28;20510;-78
2023/12/11 06:59:17;;;;;;;0.40;0.40;;;;;;;3.13;100.00;99656.03;5021073;28;20034;-78
2023/12/11 07:01:45;;;;;;;0.40;0.40;;;;;;;3.00;100.00;99659.06;5011661;28;20530;-78
2023/12/11 07:04:11;;;;;;;0.40;0.40;;;;;;;2.93;100.00;99662.50;5046903;28;20484;-77
2023/12/11 07:06:37;;;;;;;0.50;0.50;;;;;;;2.76;100.00;99665.03;5010233;28;20117;-78
2023/12/11 07:09:20;;;;;;;;;;;;;;;;;;;;;
2023/12/11 07:11:51;;;;;;;0.40;0.40;;;;;;;2.57;100.00;99657.22;5050601;28;20033;-78
2023/12/11 07:14:24;;;;;;;0.50;0.50;;;;;;;2.48;100.00;99666.06;5021577;28;20033;-79
2023/12/11 07:16:53;;;;;;;0.40;0.40;;;;;;;2.28;100.00;99668.88;5029384;28;20049;-79
2023/12/11 07:19:21;;;;;;;0.40;0.40;;;;;;;2.18;100.00;99678.69;5036597;28;20470;-78
2023/12/11 07:21:51;;;;;;;0.50;0.50;;;;;;;2.24;100.00;99671.97;5017405;28;20041;-78
2023/12/11 07:24:17;;;;;;;0.40;0.40;;;;;;;2.32;100.00;99680.81;5018383;28;20094;-78
2023/12/11 07:26:46;;;;;;;0.40;0.40;;;;;;;2.32;100.00;99677.34;5016519;28;20041;-78
2023/12/11 07:29:11;;;;;;;0.40;0.40;;;;;;;2.26;100.00;99688.56;5040582;28;20029;-78
2023/12/11 07:31:39;;;;;;;0.47;0.47;;;;;;;2.14;100.00;99691.44;5015560;28;20033;-78
2023/12/11 07:34:04;;;;;;;0.40;0.40;;;;;;;1.95;100.00;99680.91;5039917;28;20037;-78
2023/12/11 07:36:30;;;;;;;0.40;0.40;;;;;;;1.91;100.00;99682.19;5040746;28;20033;-79
2023/12/11 07:38:56;;;;;;;0.40;0.40;;;;;;;1.88;100.00;99685.97;5005363;28;20038;-78
2023/12/11 07:41:24;;;;;;;0.50;0.50;;;;;;;1.89;100.00;99681.50;4999694;28;20056;-78
2023/12/11 07:43:50;;;;;;;0.40;0.40;;;;;;;1.90;100.00;99678.69;5012332;28;20468;-78
2023/12/11 07:46:23;;;;;;;0.47;0.47;;;;;;;1.85;100.00;99672.16;5001837;28;20045;-78
2023/12/11 07:48:48;;;;;;;0.50;0.50;;;;;;;1.85;100.00;99675.63;5026928;28;20037;-79
2023/12/11 07:51:24;;;;;;;0.40;0.40;;;;;;;1.75;100.00;99670.38;5039632;28;20080;-81
2023/12/11 07:53:50;;;;;;;0.50;0.50;;;;;;;1.70;100.00;99677.09;5036101;28;20052;-78
2023/12/11 07:56:23;;;;;;;0.47;0.47;;;;;;;1.59;100.00;99683.44;5012436;28;20056;-78
2023/12/11 07:58:50;;;;;;;0.50;0.50;;;;;;;1.44;100.00;99684.84;5015298;28;20107;-78
2023/12/11 08:01:15;;;;;;;0.50;0.50;;;;;;;1.34;100.00;99686.69;5028260;28;20065;-78
2023/12/11 08:03:41;;;;;;;0.50;0.50;;;;;;;1.28;100.00;99678.34;5021241;28;20045;-78
2023/12/11 08:06:10;;;;;;;0.40;0.40;;;;;;;1.25;100.00;99683.91;4999933;28;20186;-78
2023/12/11 08:08:45;;;;;;;0.40;0.40;;;;;;;1.14;100.00;99670.00;5028614;28;20036;-78
2023/12/11 08:11:16;;;;;;;0.50;0.50;;;;;;;1.19;100.00;99673.91;5006207;28;20025;-78
2023/12/11 08:13:43;;;;;;;0.40;0.40;;;;;;;1.17;100.00;99673.22;5027748;28;20099;-77
2023/12/11 08:16:08;;;;;;;0.40;0.40;;;;;;;1.18;100.00;99671.38;5045702;28;20484;-77
2023/12/11 08:18:34;;;;;;;0.40;0.40;;;;;;;1.20;100.00;99675.56;5011887;28;20174;-78
2023/12/11 08:21:00;;;;;;;0.50;0.50;;;;;;;1.19;100.00;99668.63;5002122;28;20053;-77
2023/12/11 08:23:30;;;;;;;0.40;0.40;;;;;;;1.25;100.00;99664.56;5001914;28;20037;-77
2023/12/11 08:25:59;;;;;;;0.40;0.40;;;;;;;1.12;100.00;99678.09;5003218;28;20036;-78
2023/12/11 08:28:25;;;;;;;0.40;0.40;;;;;;;0.96;100.00;99667.25;5006768;28;20037;-78
2023/12/11 08:30:54;;;;;;;0.50;0.50;;;;;;;0.88;100.00;99660.84;5004410;28;20479;-77
2023/12/11 08:33:19;;;;;;;0.40;0.40;;;;;;;1.02;100.00;99664.03;5026848;28;20071;-77
2023/12/11 08:35:50;;;;;;;0.50;0.50;;;;;;;1.15;100.00;99661.91;5033615;28;20061;-78
2023/12/11 08:38:16;;;;;;;0.40;0.40;;;;;;;1.20;100.00;99669.44;4996777;28;20037;-78
2023/12/11 08:40:42;;;;;;;0.50;0.50;;;;;;;1.42;100.00;99678.88;5025023;28;20038;-77
2023/12/11 08:43:08;;;;;;;0.40;0.40;;;;;;;1.65;100.00;99679.34;5008803;28;20045;-78
2023/12/11 08:45:34;;;;;;;0.40;0.40;;;;;;;1.74;100.00;99674.00;5025657;28;20163;-78
2023/12/11 08:48:00;;;;;;;0.40;0.40;;;;;;;1.64;100.00;99675.03;5018065;28;20487;-78
2023/12/11 08:50:25;;;;;;;0.40;0.40;;;;;;;1.63;100.00;99676.84;5018511;28;20033;-78
2023/12/11 08:52:51;;;;;;;0.40;0.40;;;;;;;1.60;100.00;99677.13;5020642;28;20087;-78
2023/12/11 08:55:20;;;;;;;0.40;0.40;;;;;;;1.52;100.00;99669.06;5044256;28;20033;-78
2023/12/11 08:57:46;;;;;;;0.50;0.50;;;;;;;1.44;100.00;99674.25;5023186;28;20091;-78
2023/12/11 09:00:13;;;;;;;0.50;0.50;;;;;;;1.43;100.00;99683.16;5018677;28;20521;-78
2023/12/11 09:02:40;;;;;;;0.40;0.40;;;;;;;1.49;100.00;99685.25;5017270;28;20042;-78
2023/12/11 09:05:05;;;;;;;0.50;0.50;;;;;;;1.56;100.00;99688.97;5031640;28;20598;-79
2023/12/11 09:07:34;;;;;;;0.50;0.50;;;;;;;1.62;100.00;99687.59;5024470;28;20040;-79
2023/12/11 09:10:17;;;;;;;0.50;0.50;;;;;;;1.77;100.00;99686.13;5016616;28;20030;-78
2023/12/11 09:12:42;;;;;;;0.40;0.40;;;;;;;2.12;100.00;99688.06;5018943;28;20037;-78
2023/12/11 09:15:09;;;;;;;0.40;0.40;;;;;;;2.43;100.00;99679.78;5033126;28;20068;-78
2023/12/11 09:17:35;;;;;;;0.40;0.40;;;;;;;2.65;100.00;99678.53;5003466;28;20033;-78
2023/12/11 09:20:04;;;;;;;0.50;0.50;;;;;;;2.88;100.00;99678.88;5002856;28;20361;-79
2023/12/11 09:22:30;;;;;;;0.50;0.50;;;;;;;3.05;100.00;99688.66;5036622;28;20029;-78
2023/12/11 09:24:55;;;;;;;0.40;0.40;;;;;;;3.15;100.00;99690.38;5018767;28;20033;-79
2023/12/11 09:27:21;;;;;;;0.40;0.40;;;;;;;3.30;100.00;99699.47;5019322;28;20438;-79
2023/12/11 09:29:48;;;;;;;0.50;0.50;;;;;;;3.43;100.00;99696.41;5019081;28;20065;-82
2023/12/11 09:32:18;;;;;;;0.45;0.45;;;;;;;3.53;100.00;99692.66;5019584;28;20099;-81
2023/12/11 09:34:44;;;;;;;0.40;0.40;;;;;;;3.56;100.00;99696.00;5039378;28;20468;-81
2023/12/11 09:37:10;;;;;;;0.50;0.50;;;;;;;3.64;100.00;99696.03;5022771;28;20083;-82
2023/12/11 09:39:35;;;;;;;0.50;0.50;;;;;;;3.68;100.00;99698.25;5039007;28;20476;-81
2023/12/11 09:42:01;;;;;;;0.50;0.50;;;;;;;3.95;100.00;99699.03;5017069;28;20135;-82
2023/12/11 09:44:27;;;;;;;0.40;0.40;;;;;;;4.23;100.00;99701.47;5038881;28;20033;-82
2023/12/11 09:47:05;;;;;;;0.50;0.50;;;;;;;4.51;100.00;99691.44;5054552;28;20047;-82
2023/12/11 09:49:31;;;;;;;0.50;0.50;;;;;;;4.74;100.00;99691.66;5007575;28;20049;-82
2023/12/11 09:51:57;;;;;;;0.50;0.50;;;;;;;4.82;100.00;99681.00;5046602;28;20223;-82
2023/12/11 09:54:23;;;;;;;0.50;0.50;;;;;;;5.01;100.00;99688.66;5006015;28;20028;-82
2023/12/11 09:56:49;;;;;;;0.40;0.40;;;;;;;5.22;100.00;99690.00;5054916;28;20388;-82
2023/12/11 09:59:15;;;;;;;0.50;0.50;;;;;;;5.32;100.00;99682.66;5055083;28;20545;-81
2023/12/11 10:01:41;;;;;;;0.50;0.50;;;;;;;5.53;100.00;99687.47;5000124;28;20046;-82
2023/12/11 10:04:07;;;;;;;0.40;0.40;;;;;;;5.64;100.00;99687.09;5018980;28;20026;-82
2023/12/11 10:06:33;;;;;;;0.50;0.50;;;;;;;5.74;100.00;99686.88;5021657;28;20045;-82
2023/12/11 10:08:59;;;;;;;0.40;0.40;;;;;;;5.80;100.00;99674.72;5026595;28;20037;-81
2023/12/11 10:11:26;;;;;;;0.50;0.50;;;;;;;5.89;100.00;99673.69;5040282;28;20491;-81
2023/12/11 10:13:52;;;;;;;0.40;0.40;;;;;;;5.92;100.00;99670.66;5022047;28;20029;-83
2023/12/11 10:16:28;;;;;;;0.50;0.50;;;;;;;5.89;100.00;99655.84;5022111;28;20368;-82
2023/12/11 10:18:54;;;;;;;0.40;0.40;;;;;;;5.92;100.00;99655.50;5053032;28;20549;-82
2023/12/11 10:21:21;;;;;;;0.50;0.50;;;;;;;6.13;100.00;99662.13;5021398;28;20071;-81
2023/12/11 10:24:04;;;;;;;0.40;0.40;;;;;;;6.55;100.00;99656.38;5038528;28;20029;-82
2023/12/11 10:26:36;;;;;;;0.50;0.50;;;;;;;6.82;100.00;99660.34;5054809;28;20033;-82
2023/12/11 10:29:26;;;;;;;0.43;0.43;;;;;;;7.00;100.00;99668.06;5031232;28;20045;-81
2023/12/11 10:31:54;;;;;;;0.40;0.40;;;;;;;7.12;100.00;99667.63;5066174;28;20037;-81
2023/12/11 10:34:39;;;;;;;0.40;0.40;;;;;;;7.60;100.00;99662.88;5041948;28;20480;-80
2023/12/11 10:37:05;;;;;;;0.40;0.40;;;;;;;7.66;100.00;99654.09;5031540;28;20042;-80
2023/12/11 10:39:31;;;;;;;0.50;0.50;;;;;;;7.58;100.00;99649.66;5040012;28;20033;-81
2023/12/11 10:41:57;;;;;;;0.50;0.50;;;;;;;7.44;100.00;99651.31;5017685;28;20028;-80
2023/12/11 10:44:27;;;;;;;0.40;0.40;;;;;;;7.31;100.00;99643.09;5017628;28;20064;-80
2023/12/11 10:46:57;;;;;;;0.40;0.40;;;;;;;7.16;100.00;99634.19;5000306;28;20030;-80
2023/12/11 10:49:23;;;;;;;0.40;0.40;;;;;;;7.05;100.00;99630.13;5016368;28;20041;-81
2023/12/11 10:51:50;;;;;;;0.40;0.40;;;;;;;6.99;100.00;99623.66;5000168;28;20037;-81
2023/12/11 10:54:16;;;;;;;0.40;0.40;;;;;;;6.96;100.00;99626.69;5017357;28;20026;-80
2023/12/11 10:56:46;;;;;;;0.40;0.40;;;;;;;6.94;100.00;99630.56;5033843;28;20033;-80
2023/12/11 10:59:12;;;;;;;0.40;0.40;;;;;;;6.89;100.00;99625.75;5033418;28;20044;-80
2023/12/11 11:01:42;;;;;;;0.50;0.50;;;;;;;6.89;100.00;99627.59;5001251;28;20034;-81
2023/12/11 11:04:09;;;;;;;0.40;0.40;;;;;;;6.88;100.00;99623.25;5001289;28;20092;-81
2023/12/11 11:07:06;;;;;;;0.40;0.40;;;;;;;6.85;100.00;99626.28;4986069;28;20132;-81
2023/12/11 11:09:33;;;;;;;0.40;0.40;;;;;;;6.83;100.00;99618.47;5029379;28;20040;-80
2023/12/11 11:12:40;;;;;;;0.40;0.40;;;;;;;6.87;100.00;99605.56;5034075;28;20529;-80
2023/12/11 11:15:09;;;;;;;0.40;0.40;;;;;;;6.94;100.00;99609.19;5020057;28;20140;-80
2023/12/11 11:17:59;;;;;;;0.40;0.40;;;;;;;6.94;100.00;99610.00;5033190;28;20029;-81
2023/12/11 11:20:34;;;;;;;0.40;0.40;;;;;;;6.99;100.00;99606.81;5017726;28;20069;-81
2023/12/11 11:23:15;;;;;;;0.40;0.40;;;;;;;7.01;100.00;99604.75;5017256;28;20033;-80
2023/12/11 11:25:53;;;;;;;0.40;0.40;;;;;;;7.04;100.00;99594.56;5018038;28;20091;-81
2023/12/11 11:28:38;;;;;;;0.85;0.85;;;;;;;7.13;100.00;99587.28;5002195;28;20116;-81
2023/12/11 11:31:05;;;;;;;0.40;0.40;;;;;;;7.19;100.00;99585.72;5004828;28;20039;-81
2023/12/11 11:33:56;;;;;;;0.40;0.40;;;;;;;7.34;100.00;99575.03;5019277;28;20480;-80
2023/12/11 11:36:46;;;;;;;0.40;0.40;;;;;;;7.44;100.00;99568.41;5015827;28;20041;-81
2023/12/11 11:39:12;;;;;;;0.50;0.50;;;;;;;7.53;100.00;99555.75;5020406;28;20043;-81
2023/12/11 11:41:37;;;;;;;0.50;0.50;;;;;;;7.57;100.00;99557.06;5023097;28;20418;-80
2023/12/11 11:44:04;;;;;;;0.40;0.40;;;;;;;7.62;100.00;99557.34;5034318;28;20087;-80
2023/12/11 11:46:59;;;;;;;0.40;0.40;;;;;;;7.66;100.00;99557.78;5008436;28;20418;-81
2023/12/11 11:49:25;;;;;;;0.40;0.40;;;;;;;7.66;100.00;99547.91;5020673;28;20044;-80
2023/12/11 11:51:52;;;;;;;1.45;1.45;;;;;;;7.57;100.00;99534.81;5015327;28;20427;-80